createdAt,value
2023-05-22T00:00:19.435Z,100.00
2023-05-22T00:02:46.606Z,100.00
2023-05-22T00:05:14.783Z,100.00
2023-05-22T00:07:46.048Z,100.00
2023-05-22T00:10:12.992Z,100.00
2023-05-22T00:12:40.444Z,100.00
2023-05-22T00:15:07.885Z,100.00
2023-05-22T00:17:35.532Z,100.00
2023-05-22T00:20:11.082Z,100.00
2023-05-22T00:22:39.156Z,100.00
2023-05-22T00:25:07.377Z,100.00
2023-05-22T00:27:34.470Z,100.00
2023-05-22T00:30:01.741Z,100.00
2023-05-22T00:32:28.935Z,100.00
2023-05-22T00:34:56.834Z,100.00
2023-05-22T00:37:23.815Z,100.00
2023-05-22T00:39:50.855Z,100.00
2023-05-22T00:42:18.712Z,100.00
2023-05-22T00:44:46.078Z,100.00
2023-05-22T00:47:13.124Z,100.00
2023-05-22T00:49:40.792Z,100.00
2023-05-22T00:52:09.383Z,100.00
2023-05-22T00:54:36.722Z,100.00
2023-05-22T00:57:04.403Z,100.00
2023-05-22T00:59:31.543Z,100.00
2023-05-22T01:01:58.799Z,100.00
2023-05-22T01:04:26.357Z,100.00
2023-05-22T01:06:55.168Z,100.00
2023-05-22T01:09:25.662Z,100.00
2023-05-22T01:11:58.540Z,100.00
2023-05-22T01:14:41.348Z,100.00
2023-05-22T01:17:25.973Z,100.00
2023-05-22T01:20:07.365Z,100.00
2023-05-22T01:22:58.719Z,100.00
2023-05-22T01:25:41.259Z,100.00
2023-05-22T01:28:26.450Z,100.00
2023-05-22T01:31:04.392Z,100.00
2023-05-22T01:33:37.392Z,100.00
2023-05-22T01:36:07.875Z,100.00
2023-05-22T01:38:35.227Z,100.00
2023-05-22T01:41:02.149Z,100.00
2023-05-22T01:43:29.447Z,100.00
2023-05-22T01:45:56.275Z,100.00
2023-05-22T01:48:23.176Z,100.00
2023-05-22T01:50:52.703Z,100.00
2023-05-22T01:53:37.133Z,100.00
2023-05-22T01:56:10.292Z,100.00
2023-05-22T01:58:49.381Z,100.00
2023-05-22T02:01:19.538Z,100.00
2023-05-22T02:03:52.100Z,100.00
2023-05-22T02:06:19.953Z,100.00
2023-05-22T02:08:47.472Z,100.00
2023-05-22T02:11:16.755Z,100.00
2023-05-22T02:13:43.860Z,100.00
2023-05-22T02:16:12.316Z,100.00
2023-05-22T02:18:41.794Z,100.00
2023-05-22T02:21:08.819Z,100.00
2023-05-22T02:23:36.203Z,100.00
2023-05-22T02:26:03.272Z,100.00
2023-05-22T02:28:29.968Z,100.00
2023-05-22T02:30:57.196Z,100.00
2023-05-22T02:33:23.981Z,100.00
2023-05-22T02:35:50.746Z,100.00
2023-05-22T02:38:18.598Z,100.00
2023-05-22T02:40:47.209Z,100.00
2023-05-22T02:43:14.434Z,100.00
2023-05-22T02:45:41.656Z,100.00
2023-05-22T02:48:08.723Z,100.00
2023-05-22T02:50:35.659Z,100.00
2023-05-22T02:53:02.327Z,100.00
2023-05-22T02:55:28.986Z,100.00
2023-05-22T02:57:55.958Z,100.00
2023-05-22T03:00:23.159Z,100.00
2023-05-22T03:02:49.930Z,100.00
2023-05-22T03:05:18.019Z,100.00
2023-05-22T03:07:48.367Z,100.00
2023-05-22T03:10:16.029Z,100.00
2023-05-22T03:12:43.013Z,100.00
2023-05-22T03:15:11.189Z,100.00
2023-05-22T03:17:38.051Z,100.00
2023-05-22T03:20:05.556Z,100.00
2023-05-22T03:22:32.703Z,100.00
2023-05-22T03:24:59.752Z,100.00
2023-05-22T03:27:26.790Z,100.00
2023-05-22T03:29:53.847Z,100.00
2023-05-22T03:32:20.591Z,100.00
2023-05-22T03:34:47.662Z,100.00
2023-05-22T03:37:15.007Z,100.00
2023-05-22T03:39:41.758Z,100.00
2023-05-22T03:42:08.582Z,100.00
2023-05-22T03:44:35.319Z,100.00
2023-05-22T03:47:02.090Z,100.00
2023-05-22T03:49:28.751Z,100.00
2023-05-22T03:51:55.348Z,100.00
2023-05-22T03:54:22.148Z,100.00
2023-05-22T03:56:49.418Z,100.00
2023-05-22T03:59:16.506Z,100.00
2023-05-22T04:01:44.213Z,100.00
2023-05-22T04:04:12.288Z,100.00
2023-05-22T04:06:43.652Z,100.00
2023-05-22T04:09:12.158Z,100.00
2023-05-22T04:11:43.312Z,100.00
2023-05-22T04:14:10.537Z,100.00
2023-05-22T04:16:40.602Z,100.00
2023-05-22T04:19:09.850Z,100.00
2023-05-22T04:21:38.528Z,100.00
2023-05-22T04:24:07.549Z,100.00
2023-05-22T04:26:34.756Z,100.00
2023-05-22T04:29:02.334Z,100.00
2023-05-22T04:31:29.408Z,100.00
2023-05-22T04:33:56.694Z,100.00
2023-05-22T04:36:26.236Z,100.00
2023-05-22T04:38:54.164Z,100.00
2023-05-22T04:41:22.759Z,100.00
2023-05-22T04:43:49.684Z,100.00
2023-05-22T04:46:16.555Z,100.00
2023-05-22T04:48:43.560Z,100.00
2023-05-22T04:51:10.554Z,100.00
2023-05-22T04:53:38.862Z,94.40
2023-05-22T04:56:06.666Z,93.03
2023-05-22T04:58:33.807Z,83.62
2023-05-22T05:01:00.785Z,80.12
2023-05-22T05:03:28.742Z,76.28
2023-05-22T05:05:59.926Z,63.31
2023-05-22T05:08:26.926Z,61.87
2023-05-22T05:10:53.940Z,61.43
2023-05-22T05:13:21.450Z,59.55
2023-05-22T05:15:49.076Z,54.87
2023-05-22T05:18:17.179Z,57.80
2023-05-22T05:20:45.286Z,56.63
2023-05-22T05:23:12.382Z,53.09
2023-05-22T05:25:39.548Z,53.67
2023-05-22T05:28:10.880Z,55.29
2023-05-22T05:31:19.008Z,55.50
2023-05-22T05:33:47.001Z,55.53
2023-05-22T05:36:15.005Z,52.47
2023-05-22T05:38:42.626Z,52.92
2023-05-22T05:41:09.835Z,55.11
2023-05-22T05:43:37.221Z,54.92
2023-05-22T05:46:04.162Z,53.53
2023-05-22T05:48:40.467Z,54.55
2023-05-22T05:51:07.682Z,53.04
2023-05-22T05:53:37.045Z,56.50
2023-05-22T05:56:16.896Z,55.49
2023-05-22T05:58:46.828Z,57.75
2023-05-22T06:01:14.492Z,55.88
2023-05-22T06:03:41.892Z,56.56
2023-05-22T06:06:08.803Z,57.71
2023-05-22T06:08:35.669Z,57.27
2023-05-22T06:11:03.425Z,61.15
2023-05-22T06:13:30.624Z,61.76
2023-05-22T06:15:59.587Z,61.45
2023-05-22T06:18:28.995Z,59.94
2023-05-22T06:20:57.824Z,61.16
2023-05-22T06:23:27.268Z,59.86
2023-05-22T06:25:54.137Z,61.36
2023-05-22T06:28:24.493Z,65.16
2023-05-22T06:30:51.832Z,64.82
2023-05-22T06:33:18.709Z,65.15
2023-05-22T06:35:45.489Z,64.13
2023-05-22T06:38:12.143Z,62.21
2023-05-22T06:40:38.960Z,64.97
2023-05-22T06:43:05.798Z,64.11
2023-05-22T06:45:32.487Z,67.04
2023-05-22T06:47:59.429Z,64.10
2023-05-22T06:50:26.231Z,57.86
2023-05-22T06:52:53.802Z,59.62
2023-05-22T06:55:20.532Z,59.61
2023-05-22T06:57:47.516Z,55.54
2023-05-22T07:00:20.929Z,56.88
2023-05-22T07:02:48.673Z,58.05
2023-05-22T07:05:15.803Z,55.13
2023-05-22T07:07:43.789Z,56.35
2023-05-22T07:10:11.023Z,54.92
2023-05-22T07:12:37.883Z,53.35
2023-05-22T07:15:04.860Z,54.48
2023-05-22T07:17:32.649Z,57.42
2023-05-22T07:19:59.897Z,56.03
2023-05-22T07:22:27.091Z,51.26
2023-05-22T07:24:53.741Z,51.16
2023-05-22T07:27:20.821Z,48.46
2023-05-22T07:29:47.576Z,47.34
2023-05-22T07:32:15.319Z,46.63
2023-05-22T07:34:51.540Z,47.01
2023-05-22T07:37:18.736Z,46.57
2023-05-22T07:39:46.868Z,46.71
2023-05-22T07:42:15.169Z,46.77
2023-05-22T07:44:42.193Z,46.25
2023-05-22T07:47:09.141Z,47.22
2023-05-22T07:49:36.383Z,46.94
2023-05-22T07:52:10.747Z,48.20
2023-05-22T07:54:37.917Z,48.27
2023-05-22T07:57:05.060Z,48.71
2023-05-22T07:59:34.146Z,47.08
2023-05-22T08:02:03.076Z,47.47
2023-05-22T08:04:30.159Z,48.21
2023-05-22T08:07:00.160Z,48.16
2023-05-22T08:09:26.919Z,48.96
2023-05-22T08:11:53.977Z,47.63
2023-05-22T08:14:22.494Z,47.88
2023-05-22T08:16:49.876Z,48.16
2023-05-22T08:19:16.725Z,48.13
2023-05-22T08:21:43.952Z,46.69
2023-05-22T08:24:10.769Z,47.54
2023-05-22T08:26:38.964Z,47.85
2023-05-22T08:29:05.710Z,46.85
2023-05-22T08:31:34.414Z,47.37
2023-05-22T08:34:02.880Z,48.26
2023-05-22T08:36:31.672Z,48.42
2023-05-22T08:38:58.454Z,45.99
2023-05-22T08:41:25.261Z,44.80
2023-05-22T08:43:51.974Z,44.70
2023-05-22T08:46:20.162Z,43.75
2023-05-22T08:48:47.961Z,41.92
2023-05-22T08:51:19.117Z,39.20
2023-05-22T08:53:47.651Z,39.59
2023-05-22T08:56:15.152Z,41.41
2023-05-22T08:58:42.399Z,40.53
2023-05-22T09:01:09.309Z,38.52
2023-05-22T09:03:37.043Z,40.52
2023-05-22T09:06:04.799Z,40.91
2023-05-22T09:08:31.538Z,40.58
2023-05-22T09:10:58.255Z,40.96
2023-05-22T09:13:33.949Z,41.16
2023-05-22T09:16:14.689Z,42.33
2023-05-22T09:18:44.645Z,42.20
2023-05-22T09:21:28.970Z,42.67
2023-05-22T09:24:03.304Z,43.39
2023-05-22T09:26:30.261Z,43.91
2023-05-22T09:28:59.773Z,42.81
2023-05-22T09:31:27.686Z,43.30
2023-05-22T09:33:59.228Z,43.64
2023-05-22T09:36:33.247Z,44.55
2023-05-22T09:39:04.807Z,44.37
2023-05-22T09:41:37.488Z,44.02
2023-05-22T09:44:12.872Z,44.07
2023-05-22T09:46:45.512Z,43.70
2023-05-22T09:49:15.796Z,43.44
2023-05-22T09:51:48.056Z,43.46
2023-05-22T09:54:16.540Z,43.09
2023-05-22T09:56:44.362Z,43.73
2023-05-22T09:59:13.974Z,42.87
2023-05-22T10:01:42.754Z,44.19
2023-05-22T10:04:16.758Z,43.51
2023-05-22T10:06:50.439Z,43.84
2023-05-22T10:09:19.664Z,43.52
2023-05-22T10:11:48.046Z,44.02
2023-05-22T10:14:15.856Z,44.92
2023-05-22T10:16:47.215Z,44.80
2023-05-22T10:19:14.554Z,45.48
2023-05-22T10:21:41.782Z,45.32
2023-05-22T10:24:09.225Z,45.40
2023-05-22T10:26:36.390Z,44.86
2023-05-22T10:29:18.203Z,44.76
2023-05-22T10:31:56.062Z,45.86
2023-05-22T10:34:51.188Z,47.70
2023-05-22T10:37:33.143Z,48.50
2023-05-22T10:40:05.409Z,49.06
2023-05-22T10:42:32.663Z,49.63
2023-05-22T10:45:01.312Z,52.24
2023-05-22T10:47:28.367Z,58.30
2023-05-22T10:50:12.167Z,57.74
2023-05-22T10:52:40.020Z,58.90
2023-05-22T10:55:08.826Z,57.78
2023-05-22T10:57:38.555Z,54.46
2023-05-22T11:00:09.737Z,54.82
2023-05-22T11:02:42.481Z,53.34
2023-05-22T11:05:21.886Z,51.10
2023-05-22T11:07:49.229Z,49.59
2023-05-22T11:10:26.517Z,47.19
2023-05-22T11:13:19.623Z,46.95
2023-05-22T11:15:46.903Z,47.13
2023-05-22T11:18:16.553Z,47.51
2023-05-22T11:20:44.463Z,46.64
2023-05-22T11:23:11.407Z,45.68
2023-05-22T11:25:40.512Z,45.52
2023-05-22T11:28:08.101Z,46.44
2023-05-22T11:30:35.312Z,48.49
2023-05-22T11:33:02.548Z,48.55
2023-05-22T11:35:29.833Z,49.33
2023-05-22T11:37:57.154Z,52.61
2023-05-22T11:40:26.016Z,51.34
2023-05-22T11:42:54.113Z,63.71
2023-05-22T11:45:21.890Z,75.34
2023-05-22T11:47:49.094Z,90.82
2023-05-22T11:52:50.290Z,99.78
2023-05-22T11:55:17.002Z,100.00
2023-05-22T11:57:44.370Z,100.00
2023-05-22T12:00:12.140Z,100.00
2023-05-22T12:02:39.633Z,100.00
2023-05-22T12:05:11.918Z,100.00
2023-05-22T12:07:38.743Z,100.00
2023-05-22T12:10:11.368Z,100.00
2023-05-22T12:12:39.467Z,100.00
2023-05-22T12:15:08.730Z,100.00
2023-05-22T12:17:39.834Z,100.00
2023-05-22T12:20:07.420Z,100.00
2023-05-22T12:22:34.174Z,100.00
2023-05-22T12:25:01.093Z,100.00
2023-05-22T12:27:33.163Z,100.00
2023-05-22T12:30:10.464Z,100.00
2023-05-22T12:32:37.335Z,100.00
2023-05-22T12:35:04.365Z,98.96
2023-05-22T12:40:03.485Z,91.76
2023-05-22T12:42:30.122Z,87.08
2023-05-22T12:44:58.379Z,89.46
2023-05-22T12:47:25.671Z,89.34
2023-05-22T12:49:53.093Z,91.43
2023-05-22T12:52:20.034Z,97.63
2023-05-22T12:54:47.082Z,94.62
2023-05-22T12:57:13.929Z,96.67
2023-05-22T12:59:40.811Z,92.55
2023-05-22T13:02:07.680Z,87.16
2023-05-22T13:04:34.499Z,84.19
2023-05-22T13:07:01.790Z,79.41
2023-05-22T13:09:28.541Z,73.35
2023-05-22T13:11:55.658Z,78.88
2023-05-22T13:14:22.815Z,74.18
2023-05-22T13:16:49.497Z,69.27
2023-05-22T13:19:16.666Z,71.78
2023-05-22T13:21:43.724Z,67.23
2023-05-22T13:24:11.032Z,65.27
2023-05-22T13:26:37.681Z,67.79
2023-05-22T13:29:04.427Z,65.86
2023-05-22T13:31:33.385Z,68.13
2023-05-22T13:34:02.935Z,61.90
2023-05-22T13:36:30.285Z,65.71
2023-05-22T13:38:57.289Z,68.25
2023-05-22T13:41:23.971Z,64.75
2023-05-22T13:43:50.791Z,65.23
2023-05-22T13:46:18.364Z,64.43
2023-05-22T13:48:45.838Z,60.09
2023-05-22T13:51:12.542Z,60.83
2023-05-22T13:53:39.297Z,59.69
2023-05-22T13:56:06.219Z,49.86
2023-05-22T13:58:32.826Z,49.66
2023-05-22T14:00:59.534Z,48.83
2023-05-22T14:03:26.238Z,47.18
2023-05-22T14:05:53.118Z,45.35
2023-05-22T14:08:20.047Z,44.80
2023-05-22T14:10:46.841Z,44.20
2023-05-22T14:13:13.652Z,43.86
2023-05-22T14:15:40.741Z,43.96
2023-05-22T14:18:07.641Z,43.80
2023-05-22T14:20:34.464Z,43.76
2023-05-22T14:23:01.124Z,43.08
2023-05-22T14:25:27.816Z,43.59
2023-05-22T14:27:54.553Z,43.69
2023-05-22T14:30:21.319Z,44.40
2023-05-22T14:32:48.898Z,43.21
2023-05-22T14:35:16.790Z,44.00
2023-05-22T14:37:45.664Z,44.27
2023-05-22T14:40:12.415Z,44.54
2023-05-22T14:42:39.154Z,47.48
2023-05-22T14:45:06.295Z,51.41
2023-05-22T14:47:33.040Z,57.67
2023-05-22T14:50:10.282Z,59.08
2023-05-22T14:52:45.173Z,60.55
2023-05-22T14:55:11.878Z,64.07
2023-05-22T14:57:38.602Z,74.55
2023-05-22T15:00:12.586Z,85.49
2023-05-22T15:02:40.003Z,89.39
2023-05-22T15:05:10.193Z,87.79
2023-05-22T15:10:08.525Z,86.70
2023-05-22T15:12:44.290Z,89.16
2023-05-22T15:15:11.425Z,91.78
2023-05-22T15:17:39.398Z,92.71
2023-05-22T15:20:07.893Z,92.42
2023-05-22T15:22:34.695Z,91.20
2023-05-22T15:25:05.704Z,95.93
2023-05-22T15:27:33.512Z,99.93
2023-05-22T15:30:00.462Z,100.00
2023-05-22T15:32:27.459Z,100.00
2023-05-22T15:34:54.083Z,100.00
2023-05-22T15:37:20.952Z,96.35
2023-05-22T15:39:47.615Z,95.26
2023-05-22T15:42:14.514Z,95.81
2023-05-22T15:44:41.347Z,94.22
2023-05-22T15:47:08.005Z,92.03
2023-05-22T15:49:34.751Z,95.57
2023-05-22T15:52:02.893Z,91.57
2023-05-22T15:54:29.619Z,90.92
2023-05-22T15:56:56.472Z,90.26
2023-05-22T15:59:23.117Z,88.47
2023-05-22T16:01:50.046Z,83.85
2023-05-22T16:04:17.171Z,83.94
2023-05-22T16:06:43.871Z,82.43
2023-05-22T16:09:11.172Z,86.38
2023-05-22T16:11:38.092Z,88.18
2023-05-22T16:14:05.025Z,91.19
2023-05-22T16:16:31.821Z,95.47
2023-05-22T16:18:58.716Z,96.39
2023-05-22T16:21:25.570Z,98.58
2023-05-22T16:23:52.660Z,100.00
2023-05-22T16:26:19.529Z,100.00
2023-05-22T16:28:46.337Z,100.00
2023-05-22T16:31:14.062Z,100.00
2023-05-22T16:33:40.769Z,100.00
2023-05-22T16:36:07.678Z,100.00
2023-05-22T16:38:34.407Z,100.00
2023-05-22T16:41:01.427Z,100.00
2023-05-22T16:43:28.216Z,100.00
2023-05-22T16:45:55.105Z,100.00
2023-05-22T16:48:21.949Z,100.00
2023-05-22T16:50:48.841Z,100.00
2023-05-22T16:53:18.439Z,100.00
2023-05-22T16:55:48.179Z,100.00
2023-05-22T16:58:14.972Z,100.00
2023-05-22T17:00:42.036Z,100.00
2023-05-22T17:03:10.229Z,100.00
2023-05-22T17:05:40.794Z,100.00
2023-05-22T17:08:28.590Z,100.00
2023-05-22T17:11:10.441Z,100.00
2023-05-22T17:13:40.330Z,100.00
2023-05-22T17:16:08.082Z,100.00
2023-05-22T17:18:35.886Z,100.00
2023-05-22T17:21:09.817Z,100.00
2023-05-22T17:23:38.060Z,100.00
2023-05-22T17:26:05.572Z,100.00
2023-05-22T17:28:32.948Z,100.00
2023-05-22T17:31:02.921Z,100.00
2023-05-22T17:33:33.257Z,100.00
2023-05-22T17:36:04.524Z,100.00
2023-05-22T17:38:40.564Z,100.00
2023-05-22T17:41:10.739Z,100.00
2023-05-22T17:43:42.134Z,100.00
2023-05-22T17:46:10.746Z,100.00
2023-05-22T17:48:41.793Z,100.00
2023-05-22T17:51:12.831Z,100.00
2023-05-22T17:53:47.976Z,100.00
2023-05-22T17:56:14.769Z,100.00
2023-05-22T17:58:42.033Z,100.00
2023-05-22T18:01:09.351Z,100.00
2023-05-22T18:03:36.501Z,100.00
2023-05-22T18:06:03.881Z,100.00
2023-05-22T18:08:31.744Z,100.00
2023-05-22T18:10:59.188Z,100.00
2023-05-22T18:13:26.523Z,100.00
2023-05-22T18:15:54.902Z,100.00
2023-05-22T18:18:22.702Z,100.00
2023-05-22T18:20:50.526Z,100.00
2023-05-22T18:23:18.343Z,100.00
2023-05-22T18:25:48.904Z,100.00
2023-05-22T18:28:20.455Z,100.00
2023-05-22T18:30:56.692Z,100.00
2023-05-22T18:33:25.541Z,100.00
2023-05-22T18:35:57.688Z,100.00
2023-05-22T18:41:13.762Z,100.00
2023-05-22T18:43:51.084Z,100.00
2023-05-22T18:46:24.818Z,100.00
2023-05-22T18:48:52.044Z,100.00
2023-05-22T18:51:20.090Z,100.00
2023-05-22T18:53:47.235Z,100.00
2023-05-22T18:56:13.964Z,100.00
2023-05-22T18:58:41.500Z,100.00
2023-05-22T19:01:12.379Z,100.00
2023-05-22T19:03:40.174Z,100.00
2023-05-22T19:06:07.223Z,100.00
2023-05-22T19:08:34.756Z,100.00
2023-05-22T19:11:01.483Z,100.00
2023-05-22T19:13:29.310Z,100.00
2023-05-22T19:15:57.390Z,100.00
2023-05-22T19:18:24.692Z,100.00
2023-05-22T19:20:51.464Z,100.00
2023-05-22T19:23:18.669Z,100.00
2023-05-22T19:25:45.472Z,100.00
2023-05-22T19:28:12.216Z,100.00
2023-05-22T19:30:39.214Z,100.00
2023-05-22T19:33:08.707Z,100.00
2023-05-22T19:35:35.758Z,100.00
2023-05-22T19:38:02.490Z,100.00
2023-05-22T19:40:29.182Z,100.00
2023-05-22T19:42:55.979Z,100.00
2023-05-22T19:45:22.985Z,100.00
2023-05-22T19:47:49.714Z,100.00
2023-05-22T19:50:17.476Z,100.00
2023-05-22T19:52:44.680Z,100.00
2023-05-22T19:55:11.568Z,100.00
2023-05-22T19:57:38.195Z,100.00
2023-05-22T20:00:07.597Z,100.00
2023-05-22T20:02:34.418Z,100.00
2023-05-22T20:05:01.793Z,100.00
2023-05-22T20:07:28.880Z,100.00
2023-05-22T20:09:55.632Z,100.00
2023-05-22T20:12:22.293Z,100.00
2023-05-22T20:14:48.973Z,100.00
2023-05-22T20:17:15.617Z,100.00
2023-05-22T20:19:45.008Z,100.00
2023-05-22T20:22:11.701Z,100.00
2023-05-22T20:24:38.362Z,100.00
2023-05-22T20:27:06.395Z,100.00
2023-05-22T20:29:33.446Z,100.00
2023-05-22T20:32:00.220Z,100.00
2023-05-22T20:34:28.603Z,100.00
2023-05-22T20:36:55.524Z,100.00
2023-05-22T20:39:22.453Z,100.00
2023-05-22T20:41:52.019Z,100.00
2023-05-22T20:44:23.898Z,100.00
2023-05-22T20:46:54.265Z,100.00
2023-05-22T20:49:21.569Z,100.00
2023-05-22T20:51:50.093Z,100.00
2023-05-22T20:54:17.863Z,100.00
2023-05-22T20:56:44.564Z,100.00
2023-05-22T20:59:11.542Z,100.00
2023-05-22T21:01:38.405Z,100.00
2023-05-22T21:04:05.253Z,100.00
2023-05-22T21:06:32.021Z,100.00
2023-05-22T21:09:01.867Z,100.00
2023-05-22T21:11:28.636Z,100.00
2023-05-22T21:13:55.286Z,100.00
2023-05-22T21:16:21.963Z,100.00
2023-05-22T21:18:49.120Z,100.00
2023-05-22T21:21:21.604Z,100.00
2023-05-22T21:23:49.216Z,100.00
2023-05-22T21:26:16.776Z,100.00
2023-05-22T21:28:44.324Z,100.00
2023-05-22T21:31:15.080Z,100.00
2023-05-22T21:33:42.217Z,100.00
2023-05-22T21:36:09.119Z,100.00
2023-05-22T21:38:36.352Z,100.00
2023-05-22T21:41:03.467Z,100.00
2023-05-22T21:43:30.103Z,100.00
2023-05-22T21:45:56.708Z,100.00
2023-05-22T21:48:23.470Z,100.00
2023-05-22T21:50:50.308Z,100.00
2023-05-22T21:53:17.234Z,100.00
2023-05-22T21:55:43.852Z,100.00
2023-05-22T21:58:10.662Z,100.00
2023-05-22T22:00:38.061Z,100.00
2023-05-22T22:03:05.499Z,100.00
2023-05-22T22:05:32.955Z,100.00
2023-05-22T22:07:59.587Z,100.00
2023-05-22T22:10:26.303Z,100.00
2023-05-22T22:12:52.916Z,100.00
2023-05-22T22:15:19.656Z,100.00
2023-05-22T22:17:47.625Z,100.00
2023-05-22T22:20:14.373Z,100.00
2023-05-22T22:22:41.231Z,100.00
2023-05-22T22:25:08.663Z,100.00
2023-05-22T22:27:36.962Z,100.00
2023-05-22T22:30:03.845Z,100.00
2023-05-22T22:32:30.514Z,100.00
2023-05-22T22:34:57.344Z,100.00
2023-05-22T22:37:24.067Z,100.00
2023-05-22T22:39:50.728Z,100.00
2023-05-22T22:42:17.432Z,100.00
2023-05-22T22:44:44.526Z,100.00
2023-05-22T22:47:11.283Z,100.00
2023-05-22T22:49:38.450Z,100.00
2023-05-22T22:52:05.516Z,100.00
2023-05-22T22:54:32.404Z,100.00
2023-05-22T22:56:59.142Z,100.00
2023-05-22T22:59:25.920Z,100.00
2023-05-22T23:01:52.683Z,100.00
2023-05-22T23:04:19.481Z,100.00
2023-05-22T23:06:46.270Z,100.00
2023-05-22T23:09:13.187Z,100.00
2023-05-22T23:11:40.098Z,100.00
2023-05-22T23:14:10.223Z,100.00
2023-05-22T23:16:38.212Z,100.00
2023-05-22T23:19:05.819Z,100.00
2023-05-22T23:21:33.724Z,100.00
2023-05-22T23:24:01.709Z,100.00
2023-05-22T23:26:28.445Z,100.00
2023-05-22T23:28:55.144Z,100.00
2023-05-22T23:31:26.012Z,100.00
2023-05-22T23:33:53.349Z,100.00
2023-05-22T23:36:20.076Z,100.00
2023-05-22T23:38:47.647Z,100.00
2023-05-22T23:41:18.828Z,100.00
2023-05-22T23:43:46.249Z,100.00
2023-05-22T23:46:14.283Z,100.00
2023-05-22T23:48:41.791Z,100.00
2023-05-22T23:51:14.461Z,100.00
2023-05-22T23:53:42.339Z,100.00
2023-05-22T23:56:09.926Z,100.00
2023-05-22T23:58:39.658Z,100.00
